createdAt,value
2018-02-16T00:02:23.704Z,4.72
2018-02-16T00:04:52.114Z,4.69
2018-02-16T00:07:20.423Z,4.63
2018-02-16T00:09:48.736Z,4.78
2018-02-16T00:12:17.163Z,4.63
2018-02-16T00:14:45.755Z,4.56
2018-02-16T00:17:14.483Z,4.60
2018-02-16T00:19:42.843Z,4.56
2018-02-16T00:22:13.919Z,4.55
2018-02-16T00:24:42.925Z,4.53
2018-02-16T00:27:11.261Z,4.54
2018-02-16T00:29:40.144Z,4.60
2018-02-16T00:32:08.458Z,4.53
2018-02-16T00:34:37.000Z,4.54
2018-02-16T00:37:05.815Z,4.56
2018-02-16T00:39:34.133Z,4.55
2018-02-16T00:42:02.443Z,4.55
2018-02-16T00:44:30.792Z,4.52
2018-02-16T00:46:59.097Z,4.50
2018-02-16T00:49:28.001Z,4.56
2018-02-16T00:51:56.370Z,4.65
2018-02-16T00:54:24.760Z,4.67
2018-02-16T00:56:53.067Z,4.72
2018-02-16T00:59:21.488Z,4.67
2018-02-16T01:01:51.194Z,4.70
2018-02-16T01:04:19.509Z,4.92
2018-02-16T01:06:48.340Z,5.00
2018-02-16T01:09:16.649Z,5.01
2018-02-16T01:11:44.951Z,5.07
2018-02-16T01:14:13.688Z,5.15
2018-02-16T01:16:41.992Z,5.17
2018-02-16T01:19:10.295Z,5.19
2018-02-16T01:21:38.636Z,5.13
2018-02-16T01:24:08.044Z,5.07
2018-02-16T01:26:36.119Z,5.13
2018-02-16T01:29:04.245Z,5.16
2018-02-16T01:31:32.560Z,5.07
2018-02-16T01:34:01.078Z,5.07
2018-02-16T01:36:29.408Z,5.06
2018-02-16T01:38:57.760Z,5.01
2018-02-16T01:41:26.091Z,4.86
2018-02-16T01:43:54.399Z,4.78
2018-02-16T01:46:22.812Z,4.90
2018-02-16T01:48:51.120Z,4.88
2018-02-16T01:51:19.456Z,4.84
2018-02-16T01:53:48.772Z,4.95
2018-02-16T01:56:17.801Z,5.02
2018-02-16T01:58:46.123Z,5.03
2018-02-16T02:01:15.344Z,5.07
2018-02-16T02:03:43.652Z,5.12
2018-02-16T02:06:11.960Z,5.16
2018-02-16T02:08:40.558Z,5.18
2018-02-16T02:11:08.863Z,5.11
2018-02-16T02:13:37.385Z,5.19
2018-02-16T02:16:05.815Z,5.12
2018-02-16T02:18:34.132Z,4.93
2018-02-16T02:21:02.439Z,4.52
2018-02-16T02:23:30.887Z,4.50
2018-02-16T02:25:59.195Z,4.67
2018-02-16T02:28:28.634Z,4.71
2018-02-16T02:30:57.020Z,4.72
2018-02-16T02:33:25.372Z,4.74
2018-02-16T02:35:53.823Z,4.80
2018-02-16T02:38:22.263Z,4.76
2018-02-16T02:40:51.332Z,4.82
2018-02-16T02:43:19.644Z,4.72
2018-02-16T02:45:48.791Z,4.61
2018-02-16T02:48:17.095Z,4.59
2018-02-16T02:50:45.407Z,4.72
2018-02-16T02:53:13.756Z,4.74
2018-02-16T02:55:42.060Z,4.81
2018-02-16T02:58:11.091Z,4.93
2018-02-16T03:00:39.466Z,4.92
2018-02-16T03:03:07.527Z,4.80
2018-02-16T03:05:35.848Z,4.68
2018-02-16T03:08:05.704Z,4.66
2018-02-16T03:10:34.024Z,4.79
2018-02-16T03:13:02.631Z,4.80
2018-02-16T03:15:31.387Z,4.78
2018-02-16T03:17:59.699Z,4.73
2018-02-16T03:20:28.039Z,4.77
2018-02-16T03:22:56.781Z,4.88
2018-02-16T03:25:25.873Z,4.88
2018-02-16T03:27:54.709Z,4.93
2018-02-16T03:30:23.124Z,4.90
2018-02-16T03:32:51.438Z,4.81
2018-02-16T03:35:19.816Z,4.76
2018-02-16T03:37:48.124Z,4.79
2018-02-16T03:40:17.143Z,4.69
2018-02-16T03:42:45.504Z,4.52
2018-02-16T03:45:13.816Z,4.51
2018-02-16T03:47:42.128Z,4.64
2018-02-16T03:50:10.467Z,4.64
2018-02-16T03:52:38.772Z,4.77
2018-02-16T03:55:07.083Z,4.85
2018-02-16T03:57:35.731Z,4.76
2018-02-16T04:00:04.039Z,4.64
2018-02-16T04:02:32.379Z,4.80
2018-02-16T04:05:00.715Z,4.78
2018-02-16T04:07:29.032Z,4.83
2018-02-16T04:09:58.116Z,4.76
2018-02-16T04:12:27.251Z,4.81
2018-02-16T04:14:55.555Z,4.88
2018-02-16T04:17:23.872Z,4.85
2018-02-16T04:19:52.216Z,4.79
2018-02-16T04:22:20.516Z,4.81
2018-02-16T04:24:49.978Z,4.83
2018-02-16T04:27:18.291Z,4.72
2018-02-16T04:29:46.600Z,4.76
2018-02-16T04:32:15.807Z,4.72
2018-02-16T04:34:44.116Z,4.82
2018-02-16T04:37:12.419Z,4.80
2018-02-16T04:39:40.780Z,4.64
2018-02-16T04:42:09.119Z,4.73
2018-02-16T04:44:37.560Z,4.84
2018-02-16T04:47:05.929Z,4.90
2018-02-16T04:49:34.239Z,4.53
2018-02-16T04:52:03.314Z,4.69
2018-02-16T04:54:32.040Z,4.71
2018-02-16T04:57:00.347Z,4.76
2018-02-16T04:59:28.663Z,4.90
2018-02-16T05:01:57.040Z,4.89
2018-02-16T05:04:26.123Z,4.92
2018-02-16T05:06:54.434Z,4.97
2018-02-16T05:09:24.144Z,5.01
2018-02-16T05:11:52.520Z,4.96
2018-02-16T05:14:20.826Z,4.96
2018-02-16T05:16:49.159Z,4.85
2018-02-16T05:19:18.514Z,4.87
2018-02-16T05:21:46.828Z,4.83
2018-02-16T05:24:18.805Z,4.85
2018-02-16T05:26:47.728Z,4.87
2018-02-16T05:29:16.219Z,4.91
2018-02-16T05:31:44.568Z,4.79
2018-02-16T05:34:13.913Z,4.78
2018-02-16T05:36:42.223Z,4.71
2018-02-16T05:39:10.575Z,4.76
2018-02-16T05:41:39.903Z,4.78
2018-02-16T05:44:08.903Z,4.79
2018-02-16T05:46:37.795Z,4.75
2018-02-16T05:49:06.125Z,4.70
2018-02-16T05:51:34.428Z,4.67
2018-02-16T05:54:02.915Z,4.66
2018-02-16T05:56:31.240Z,4.61
2018-02-16T05:58:59.557Z,4.65
2018-02-16T06:01:27.904Z,4.51
2018-02-16T06:03:56.847Z,4.55
2018-02-16T06:06:25.147Z,4.59
2018-02-16T06:08:53.516Z,4.64
2018-02-16T06:11:21.823Z,4.65
2018-02-16T06:13:50.445Z,4.63
2018-02-16T06:16:18.807Z,4.57
2018-02-16T06:18:47.119Z,4.44
2018-02-16T06:21:15.428Z,4.44
2018-02-16T06:23:44.741Z,4.31
2018-02-16T06:26:13.618Z,4.46
2018-02-16T06:28:42.503Z,4.56
2018-02-16T06:31:11.637Z,4.60
2018-02-16T06:33:39.952Z,4.62
2018-02-16T06:36:08.264Z,4.52
2018-02-16T06:38:36.712Z,4.62
2018-02-16T06:41:05.019Z,4.66
2018-02-16T06:43:33.327Z,4.65
2018-02-16T06:46:01.675Z,4.55
2018-02-16T06:48:29.976Z,4.51
2018-02-16T06:50:59.045Z,4.53
2018-02-16T06:53:28.255Z,4.58
2018-02-16T06:55:56.569Z,4.61
2018-02-16T06:58:25.145Z,4.71
2018-02-16T07:00:53.792Z,4.76
2018-02-16T07:03:22.141Z,4.74
2018-02-16T07:05:50.415Z,4.88
2018-02-16T07:08:18.780Z,4.93
2018-02-16T07:10:47.084Z,4.84
2018-02-16T07:13:16.155Z,4.91
2018-02-16T07:15:44.513Z,4.91
2018-02-16T07:18:12.812Z,4.96
2018-02-16T07:20:41.607Z,4.99
2018-02-16T07:23:09.972Z,4.97
2018-02-16T07:25:38.284Z,5.11
2018-02-16T07:28:06.588Z,5.15
2018-02-16T07:30:35.523Z,5.30
2018-02-16T07:33:03.827Z,5.57
2018-02-16T07:35:32.904Z,5.67
2018-02-16T07:38:01.268Z,5.81
2018-02-16T07:40:29.583Z,5.90
2018-02-16T07:42:57.925Z,6.07
2018-02-16T07:45:26.376Z,5.99
2018-02-16T07:47:54.687Z,6.08
2018-02-16T07:50:23.007Z,6.25
2018-02-16T07:52:51.376Z,6.11
2018-02-16T07:55:19.700Z,5.91
2018-02-16T07:57:48.029Z,5.75
2018-02-16T08:00:16.367Z,5.73
2018-02-16T08:02:44.673Z,5.86
2018-02-16T08:05:12.981Z,6.01
2018-02-16T08:07:41.344Z,6.33
2018-02-16T08:10:10.416Z,6.65
2018-02-16T08:12:38.711Z,6.97
2018-02-16T08:15:07.816Z,6.99
2018-02-16T08:17:36.131Z,6.89
2018-02-16T08:20:04.431Z,6.83
2018-02-16T08:22:32.775Z,6.42
2018-02-16T08:25:01.081Z,6.82
2018-02-16T08:27:29.296Z,6.60
2018-02-16T08:29:57.647Z,6.46
2018-02-16T08:32:25.947Z,6.58
2018-02-16T08:34:55.007Z,6.26
2018-02-16T08:37:23.352Z,6.28
2018-02-16T08:39:51.655Z,6.37
2018-02-16T08:42:19.980Z,6.23
2018-02-16T08:44:48.326Z,6.12
2018-02-16T08:47:16.623Z,5.96
2018-02-16T08:49:45.756Z,5.81
2018-02-16T08:52:14.084Z,5.83
2018-02-16T08:54:42.389Z,5.96
2018-02-16T08:57:10.707Z,6.14
2018-02-16T08:59:39.081Z,6.00
2018-02-16T09:02:07.440Z,6.12
2018-02-16T09:04:35.743Z,6.42
2018-02-16T09:07:04.113Z,6.65
2018-02-16T09:09:32.424Z,7.08
2018-02-16T09:12:00.736Z,7.34
2018-02-16T09:14:29.113Z,7.30
2018-02-16T09:16:57.415Z,7.78
2018-02-16T09:19:25.717Z,8.61
2018-02-16T09:21:54.585Z,9.46
2018-02-16T09:24:22.891Z,10.37
2018-02-16T09:26:51.190Z,9.99
2018-02-16T09:29:19.309Z,9.01
2018-02-16T09:31:47.888Z,9.00
2018-02-16T09:34:16.196Z,8.69
2018-02-16T09:36:44.624Z,9.06
2018-02-16T09:39:19.424Z,9.47
2018-02-16T09:41:47.784Z,9.47
2018-02-16T09:44:16.287Z,9.40
2018-02-16T09:46:44.632Z,9.66
2018-02-16T09:49:12.991Z,10.01
2018-02-16T09:51:41.291Z,10.14
2018-02-16T09:54:10.212Z,10.32
2018-02-16T09:56:38.559Z,10.64
2018-02-16T09:59:06.855Z,9.78
2018-02-16T10:01:35.151Z,9.61
2018-02-16T10:04:03.588Z,9.18
2018-02-16T10:06:31.891Z,9.27
2018-02-16T10:09:00.195Z,9.25
2018-02-16T10:11:29.401Z,10.34
2018-02-16T10:13:57.716Z,10.89
2018-02-16T10:16:26.408Z,10.96
2018-02-16T10:18:54.877Z,10.51
2018-02-16T10:21:23.180Z,9.64
2018-02-16T10:23:51.495Z,10.00
2018-02-16T10:26:20.616Z,10.49
2018-02-16T10:28:48.919Z,10.68
2018-02-16T10:31:17.226Z,10.96
2018-02-16T10:33:46.373Z,11.41
2018-02-16T10:36:14.720Z,11.19
2018-02-16T10:38:43.536Z,11.25
2018-02-16T10:41:11.872Z,11.39
2018-02-16T10:43:40.188Z,10.74
2018-02-16T10:46:08.504Z,11.08
2018-02-16T10:48:36.624Z,10.98
2018-02-16T10:51:04.940Z,10.77
2018-02-16T10:53:33.508Z,10.76
2018-02-16T10:56:01.899Z,10.17
2018-02-16T10:58:30.830Z,9.26
2018-02-16T11:01:04.654Z,9.14
2018-02-16T11:03:33.285Z,8.99
2018-02-16T11:06:01.867Z,9.02
2018-02-16T11:21:52.215Z,9.62
2018-02-16T11:24:20.572Z,9.37
2018-02-16T11:26:49.651Z,10.06
2018-02-16T11:29:17.980Z,10.11
2018-02-16T11:31:47.427Z,10.23
2018-02-16T11:34:15.731Z,9.61
2018-02-16T11:36:44.324Z,9.93
2018-02-16T11:39:12.673Z,10.02
2018-02-16T11:41:40.979Z,10.19
2018-02-16T11:44:10.052Z,10.20
2018-02-16T11:46:38.390Z,9.94
2018-02-16T11:49:06.869Z,9.86
2018-02-16T11:51:35.184Z,10.04
2018-02-16T11:54:03.560Z,10.23
2018-02-16T11:56:31.873Z,10.32
2018-02-16T11:59:00.187Z,9.66
2018-02-16T12:01:28.536Z,9.74
2018-02-16T12:03:56.839Z,9.70
2018-02-16T12:06:25.144Z,9.61
2018-02-16T12:08:53.508Z,9.22
2018-02-16T12:11:21.810Z,9.23
2018-02-16T12:13:50.119Z,8.79
2018-02-16T12:16:18.475Z,9.28
2018-02-16T12:18:47.547Z,9.77
2018-02-16T12:21:15.847Z,10.17
2018-02-16T12:23:44.949Z,10.39
2018-02-16T12:26:14.023Z,10.36
2018-02-16T12:28:42.336Z,10.48
2018-02-16T12:31:10.691Z,10.31
2018-02-16T12:33:39.132Z,9.94
2018-02-16T12:36:07.764Z,9.61
2018-02-16T12:38:36.688Z,9.01
2018-02-16T12:41:05.019Z,9.37
2018-02-16T12:43:33.324Z,8.75
2018-02-16T12:46:01.761Z,8.80
2018-02-16T12:48:30.064Z,8.93
2018-02-16T12:50:58.376Z,8.69
2018-02-16T12:53:26.815Z,9.31
2018-02-16T12:55:55.120Z,9.97
2018-02-16T12:58:23.451Z,9.93
2018-02-16T13:00:51.800Z,10.51
2018-02-16T13:03:20.127Z,10.68
2018-02-16T13:05:48.658Z,10.48
2018-02-16T13:08:17.140Z,10.37
2018-02-16T13:10:46.099Z,10.42
2018-02-16T13:13:15.183Z,10.03
2018-02-16T13:15:44.315Z,9.76
2018-02-16T13:18:13.003Z,9.51
2018-02-16T13:20:41.318Z,9.47
2018-02-16T13:23:09.640Z,9.26
2018-02-16T13:25:38.073Z,9.29
2018-02-16T13:28:06.386Z,9.35
2018-02-16T13:30:34.771Z,9.50
2018-02-16T13:33:03.879Z,9.60
2018-02-16T13:35:32.227Z,9.73
2018-02-16T13:38:00.883Z,9.94
2018-02-16T13:40:29.201Z,9.13
2018-02-16T13:42:57.524Z,8.88
2018-02-16T13:45:25.908Z,9.56
2018-02-16T13:47:54.312Z,9.67
2018-02-16T13:50:23.287Z,9.81
2018-02-16T13:52:52.455Z,9.86
2018-02-16T13:55:20.803Z,10.08
2018-02-16T13:57:49.148Z,10.34
2018-02-16T14:00:18.679Z,10.42
2018-02-16T14:02:46.827Z,10.69
2018-02-16T14:05:15.432Z,10.84
2018-02-16T14:07:43.750Z,10.75
2018-02-16T14:10:11.916Z,10.74
2018-02-16T14:12:40.282Z,11.00
2018-02-16T14:15:08.600Z,11.22
2018-02-16T14:17:36.959Z,11.27
2018-02-16T14:20:06.095Z,11.04
2018-02-16T14:22:34.216Z,11.02
2018-02-16T14:25:02.581Z,10.73
2018-02-16T14:27:31.659Z,10.81
2018-02-16T14:30:00.016Z,10.60
2018-02-16T14:32:28.339Z,10.05
2018-02-16T14:34:56.670Z,10.01
2018-02-16T14:37:25.640Z,10.12
2018-02-16T14:39:54.499Z,10.37
2018-02-16T14:42:23.588Z,10.14
2018-02-16T14:44:52.668Z,10.06
2018-02-16T14:47:21.104Z,9.97
2018-02-16T14:49:49.444Z,9.92
2018-02-16T14:52:18.519Z,10.10
2018-02-16T14:54:46.943Z,10.23
2018-02-16T14:57:15.088Z,10.21
2018-02-16T14:59:43.395Z,9.99
2018-02-16T15:02:11.467Z,10.26
2018-02-16T15:04:39.894Z,10.19
2018-02-16T15:07:08.182Z,10.24
2018-02-16T15:09:37.301Z,10.06
2018-02-16T15:12:06.733Z,9.71
2018-02-16T15:14:35.148Z,9.88
2018-02-16T15:17:03.263Z,9.98
2018-02-16T15:19:32.123Z,9.97
2018-02-16T15:22:00.436Z,9.52
2018-02-16T15:24:28.752Z,9.27
2018-02-16T15:26:57.108Z,9.03
2018-02-16T15:29:25.467Z,9.09
2018-02-16T15:31:53.580Z,9.13
2018-02-16T15:34:21.793Z,9.06
2018-02-16T15:36:50.113Z,8.94
2018-02-16T15:39:18.434Z,8.72
2018-02-16T15:41:46.547Z,8.36
2018-02-16T15:44:14.868Z,7.96
2018-02-16T15:46:43.183Z,7.62
2018-02-16T15:49:11.523Z,7.35
2018-02-16T15:51:40.487Z,7.08
2018-02-16T15:54:08.793Z,6.87
2018-02-16T15:56:37.127Z,6.62
2018-02-16T15:59:05.477Z,6.45
2018-02-16T16:01:34.556Z,6.28
2018-02-16T16:04:02.915Z,6.17
2018-02-16T16:06:31.866Z,6.27
2018-02-16T16:09:00.196Z,6.15
2018-02-16T16:11:28.539Z,5.91
2018-02-16T16:13:57.928Z,5.77
2018-02-16T16:16:26.340Z,5.64
2018-02-16T16:18:54.673Z,5.50
2018-02-16T16:21:23.003Z,5.28
2018-02-16T16:23:51.376Z,5.11
2018-02-16T16:26:19.691Z,4.95
2018-02-16T16:28:48.435Z,4.90
2018-02-16T16:31:17.704Z,4.88
2018-02-16T16:33:46.008Z,4.85
2018-02-16T16:36:14.376Z,4.80
2018-02-16T16:38:42.684Z,4.72
2018-02-16T16:41:10.987Z,4.63
2018-02-16T16:43:39.880Z,4.54
2018-02-16T16:46:08.198Z,4.44
2018-02-16T16:48:36.512Z,4.27
2018-02-16T16:51:04.951Z,4.00
2018-02-16T16:53:33.261Z,3.86
2018-02-16T16:56:01.599Z,3.75
2018-02-16T16:58:29.980Z,3.66
2018-02-16T17:00:58.276Z,3.44
2018-02-16T17:03:26.579Z,3.30
2018-02-16T17:05:54.955Z,3.14
2018-02-16T17:08:23.272Z,3.11
2018-02-16T17:10:51.736Z,3.15
2018-02-16T17:13:20.573Z,3.18
2018-02-16T17:15:49.231Z,3.21
2018-02-16T17:18:17.584Z,3.14
2018-02-16T17:20:45.775Z,3.11
2018-02-16T17:23:15.840Z,3.13
2018-02-16T17:25:45.537Z,3.16
2018-02-16T17:28:13.948Z,3.18
2018-02-16T17:30:42.252Z,3.06
2018-02-16T17:33:13.596Z,3.03
2018-02-16T17:35:41.918Z,3.02
2018-02-16T17:38:10.226Z,3.07
2018-02-16T17:40:38.692Z,2.85
2018-02-16T17:43:07.571Z,2.73
2018-02-16T17:45:36.576Z,2.59
2018-02-16T17:48:05.383Z,2.53
2018-02-16T17:50:34.686Z,2.57
2018-02-16T17:53:03.903Z,2.57
2018-02-16T17:55:45.294Z,2.55
2018-02-16T17:58:13.920Z,2.36
2018-02-16T18:00:43.355Z,2.32
2018-02-16T18:03:11.864Z,2.42
2018-02-16T18:05:40.959Z,2.55
2018-02-16T18:08:10.044Z,2.60
2018-02-16T18:10:38.442Z,2.60
2018-02-16T18:13:06.744Z,2.75
2018-02-16T18:15:35.057Z,2.84
2018-02-16T18:18:03.423Z,2.92
2018-02-16T18:20:31.728Z,2.81
2018-02-16T18:23:00.036Z,2.66
2018-02-16T18:25:28.553Z,2.51
2018-02-16T18:27:56.876Z,2.42
2018-02-16T18:30:25.216Z,2.28
2018-02-16T18:32:53.565Z,2.28
2018-02-16T18:35:21.883Z,2.30
2018-02-16T18:37:50.223Z,2.32
2018-02-16T18:40:18.580Z,2.35
2018-02-16T18:42:46.898Z,2.37
2018-02-16T18:45:15.627Z,2.44
2018-02-16T18:47:44.826Z,2.43
2018-02-16T18:50:13.903Z,2.37
2018-02-16T18:52:42.256Z,2.44
2018-02-16T18:55:10.575Z,2.39
2018-02-16T18:57:38.885Z,2.34
2018-02-16T19:00:08.036Z,2.27
2018-02-16T19:02:36.395Z,2.29
2018-02-16T19:05:07.677Z,2.25
2018-02-16T19:07:36.020Z,2.41
2018-02-16T19:10:04.332Z,2.50
2018-02-16T19:12:32.530Z,2.52
2018-02-16T19:15:00.780Z,2.57
2018-02-16T19:17:29.088Z,2.54
2018-02-16T19:19:57.875Z,2.59
2018-02-16T19:22:26.197Z,2.56
2018-02-16T19:24:54.775Z,2.54
2018-02-16T19:27:23.326Z,2.51
2018-02-16T19:29:51.664Z,2.50
2018-02-16T19:32:20.548Z,2.42
2018-02-16T19:34:49.312Z,2.27
2018-02-16T19:37:18.367Z,2.07
2018-02-16T19:39:46.808Z,1.99
2018-02-16T19:42:15.969Z,2.11
2018-02-16T19:44:44.316Z,2.05
2018-02-16T19:47:13.299Z,2.06
2018-02-16T19:49:41.652Z,2.08
2018-02-16T19:52:13.809Z,2.05
2018-02-16T19:54:46.992Z,2.09
2018-02-16T19:57:16.125Z,2.05
2018-02-16T19:59:44.548Z,2.01
2018-02-16T20:02:13.191Z,1.95
2018-02-16T20:04:41.972Z,1.72
2018-02-16T20:07:10.347Z,1.54
2018-02-16T20:09:40.887Z,1.35
2018-02-16T20:12:09.256Z,1.39
2018-02-16T20:14:38.010Z,1.34
2018-02-16T20:17:06.544Z,1.17
2018-02-16T20:19:34.864Z,1.08
2018-02-16T20:22:04.681Z,0.81
2018-02-16T20:24:33.219Z,0.85
2018-02-16T20:27:02.050Z,1.12
2018-02-16T20:29:31.879Z,1.15
2018-02-16T20:32:01.027Z,1.00
2018-02-16T20:34:30.113Z,1.04
2018-02-16T20:36:59.330Z,0.97
2018-02-16T20:39:27.754Z,0.84
2018-02-16T20:41:56.073Z,0.74
2018-02-16T20:44:24.384Z,0.64
2018-02-16T20:46:53.361Z,0.55
2018-02-16T20:49:21.667Z,0.75
2018-02-16T20:51:50.125Z,1.01
2018-02-16T20:54:19.059Z,1.08
2018-02-16T20:56:48.100Z,1.05
2018-02-16T20:59:16.416Z,0.93
2018-02-16T21:01:45.146Z,0.77
2018-02-16T21:04:13.541Z,0.59
2018-02-16T21:06:42.016Z,0.56
2018-02-16T21:09:10.468Z,0.53
2018-02-16T21:11:38.788Z,0.44
2018-02-16T21:14:07.108Z,0.44
2018-02-16T21:16:35.508Z,0.50
2018-02-16T21:19:03.840Z,0.57
2018-02-16T21:21:32.173Z,0.70
2018-02-16T21:24:00.531Z,0.71
2018-02-16T21:26:28.913Z,0.74
2018-02-16T21:28:57.223Z,0.74
2018-02-16T21:31:25.617Z,0.49
2018-02-16T21:33:53.903Z,0.21
2018-02-16T21:36:22.983Z,-0.12
2018-02-16T21:38:51.307Z,-0.15
2018-02-16T21:41:19.662Z,-0.07
2018-02-16T21:43:48.264Z,0.09
2018-02-16T21:46:16.645Z,0.15
2018-02-16T21:48:45.012Z,0.04
2018-02-16T21:51:13.476Z,-0.24
2018-02-16T21:53:41.982Z,-0.23
2018-02-16T21:56:10.285Z,-0.01
2018-02-16T21:58:40.104Z,0.14
2018-02-16T22:01:09.232Z,0.12
2018-02-16T22:03:37.552Z,0.06
2018-02-16T22:06:05.909Z,0.03
2018-02-16T22:08:34.932Z,-0.06
2018-02-16T22:11:03.416Z,-0.12
2018-02-16T22:13:32.588Z,-0.07
2018-02-16T22:16:01.381Z,0.07
2018-02-16T22:18:29.744Z,0.09
2018-02-16T22:20:59.213Z,0.15
2018-02-16T22:23:28.508Z,0.12
2018-02-16T22:25:56.839Z,0.11
2018-02-16T22:28:25.164Z,0.07
2018-02-16T22:30:54.311Z,-0.17
2018-02-16T22:33:24.083Z,-0.24
2018-02-16T22:35:52.961Z,-0.25
2018-02-16T22:38:21.352Z,-0.22
2018-02-16T22:40:50.461Z,-0.18
2018-02-16T22:43:19.600Z,-0.17
2018-02-16T22:45:48.524Z,-0.31
2018-02-16T22:48:17.612Z,-0.31
2018-02-16T22:50:45.976Z,-0.31
2018-02-16T22:53:14.300Z,-0.38
2018-02-16T22:55:42.696Z,-0.38
2018-02-16T22:58:11.021Z,-0.30
2018-02-16T23:00:39.350Z,-0.45
2018-02-16T23:03:07.707Z,-0.52
2018-02-16T23:05:36.043Z,-0.46
2018-02-16T23:08:04.428Z,-0.39
2018-02-16T23:10:32.761Z,-0.32
2018-02-16T23:13:01.083Z,-0.30
2018-02-16T23:15:29.431Z,-0.30
2018-02-16T23:17:57.760Z,-0.39
2018-02-16T23:20:26.119Z,-0.52
2018-02-16T23:22:54.435Z,-0.64
2018-02-16T23:25:23.304Z,-0.61
2018-02-16T23:27:52.395Z,-0.55
2018-02-16T23:30:20.739Z,-0.56
2018-02-16T23:32:49.129Z,-0.62
2018-02-16T23:35:17.455Z,-0.73
2018-02-16T23:37:46.460Z,-0.59
2018-02-16T23:40:15.211Z,-0.67
2018-02-16T23:42:44.249Z,-0.88
2018-02-16T23:45:12.577Z,-0.98
2018-02-16T23:47:40.956Z,-0.92
2018-02-16T23:50:09.285Z,-0.80
2018-02-16T23:52:37.774Z,-0.80
2018-02-16T23:55:06.901Z,-0.86
2018-02-16T23:57:35.272Z,-0.98
